Time;durP1;ratioP1;P1;durP2;ratioP2;P2;SDS_P1;SDS_P2;PMS_P1;PMS_P2;Temp;Humidity;BMP_temperature;BMP_pressure;BME280_temperature;BME280_humidity;BME280_pressure;Samples;Min_cycle;Max_cycle;Signal;HPM_P1;HPM_P2
2023/05/30 00:02:15;;;;;;;13.27;8.48;;;;;;;16.50;100.00;100286.94;5547535;32;34125;-69
2023/05/30 00:05:23;;;;;;;12.43;7.75;;;;;;;16.43;100.00;100294.16;5547639;32;33892;-69
2023/05/30 00:08:31;;;;;;;13.82;8.23;;;;;;;16.37;100.00;100296.81;5547460;32;34786;-70
2023/05/30 00:11:40;;;;;;;13.43;8.32;;;;;;;16.26;100.00;100294.78;5546100;32;34174;-69
2023/05/30 00:14:48;;;;;;;13.65;7.75;;;;;;;16.23;100.00;100297.84;5547436;32;33895;-69
2023/05/30 00:17:57;;;;;;;13.90;8.45;;;;;;;16.36;100.00;100292.50;5547351;32;33979;-69
2023/05/30 00:21:08;;;;;;;12.57;8.25;;;;;;;16.33;100.00;100298.25;5546513;32;34828;-69
2023/05/30 00:24:19;;;;;;;11.10;7.90;;;;;;;16.28;100.00;100290.84;5547400;32;34165;-69
2023/05/30 00:27:24;;;;;;;11.60;8.27;;;;;;;16.22;100.00;100285.50;5547263;32;34021;-69
2023/05/30 00:30:31;;;;;;;13.52;7.75;;;;;;;16.15;100.00;100287.38;5547247;32;33847;-69
2023/05/30 00:33:39;;;;;;;12.63;7.50;;;;;;;16.18;100.00;100297.66;5546365;32;34668;-69
2023/05/30 00:36:49;;;;;;;;;;;;;;;16.09;100.00;100297.87;5547293;32;34179;-69
2023/05/30 00:39:56;;;;;;;13.15;7.57;;;;;;;16.03;100.00;100297.84;5547105;32;35122;-69
2023/05/30 00:43:05;;;;;;;15.18;7.82;;;;;;;15.95;100.00;100295.38;5546969;32;33866;-69
2023/05/30 00:46:13;;;;;;;10.13;7.30;;;;;;;15.87;100.00;100292.91;5546971;32;34634;-69
2023/05/30 00:49:22;;;;;;;11.52;7.97;;;;;;;15.82;100.00;100296.22;5546851;32;34018;-69
2023/05/30 00:52:30;;;;;;;15.35;7.80;;;;;;;15.73;100.00;100296.59;5546876;32;33861;-69
2023/05/30 00:55:41;;;;;;;11.35;7.97;;;;;;;15.76;100.00;100293.50;5546527;32;35548;-70
2023/05/30 00:58:46;;;;;;;11.80;7.37;;;;;;;15.70;100.00;100295.13;5545808;32;34028;-69
2023/05/30 01:01:52;;;;;;;14.73;8.02;;;;;;;15.72;100.00;100293.09;5545831;32;34090;-69
2023/05/30 01:04:58;;;;;;;12.82;7.70;;;;;;;15.81;100.00;100293.72;5546695;32;34246;-69
2023/05/30 01:08:07;;;;;;;15.10;8.15;;;;;;;15.79;100.00;100287.75;5546557;32;34145;-69
2023/05/30 01:11:20;;;;;;;14.75;7.43;;;;;;;15.76;100.00;100291.66;5546489;32;34655;-69
2023/05/30 01:15:05;;;;;;;15.95;7.47;;;;;;;15.72;100.00;100292.28;5546452;32;33835;-69
2023/05/30 01:18:24;;;;;;;13.43;7.57;;;;;;;15.68;100.00;100299.88;5546283;32;34711;-69
2023/05/30 01:21:37;;;;;;;13.77;8.48;;;;;;;15.61;100.00;100289.16;5546302;32;34322;-69
2023/05/30 01:24:53;;;;;;;17.10;7.50;;;;;;;15.62;100.00;100288.16;5549028;32;34117;-69
2023/05/30 01:28:10;;;;;;;16.02;8.38;;;;;;;15.63;100.00;100295.16;5548237;32;34608;-69
2023/05/30 01:31:20;;;;;;;10.63;6.95;;;;;;;15.57;100.00;100287.94;5549259;32;34138;-69
2023/05/30 01:34:28;;;;;;;13.70;7.85;;;;;;;15.51;100.00;100291.41;5548910;32;34869;-69
2023/05/30 01:37:36;;;;;;;8.98;7.47;;;;;;;15.51;100.00;100294.06;5548841;32;33863;-69
2023/05/30 01:40:46;;;;;;;12.57;7.80;;;;;;;15.46;100.00;100293.00;5548891;32;33881;-69
2023/05/30 01:44:06;;;;;;;13.62;7.40;;;;;;;15.40;100.00;100288.44;5547931;32;34166;-69
2023/05/30 01:47:32;;;;;;;11.93;7.78;;;;;;;15.42;100.00;100283.72;5548734;32;33817;-69
2023/05/30 01:50:47;;;;;;;12.23;7.47;;;;;;;15.37;100.00;100289.69;5549061;32;34621;-69
2023/05/30 01:54:02;;;;;;;13.43;8.23;;;;;;;15.44;100.00;100292.38;5545399;32;34180;-69
2023/05/30 01:57:12;;;;;;;11.57;7.40;;;;;;;15.44;100.00;100290.50;5546593;32;34870;-70
2023/05/30 02:00:23;;;;;;;12.40;7.50;;;;;;;15.51;100.00;100285.22;5548737;32;34443;-69
2023/05/30 02:03:31;;;;;;;14.27;7.55;;;;;;;15.56;100.00;100290.78;5548699;32;34158;-69
2023/05/30 02:06:39;;;;;;;13.88;8.05;;;;;;;15.56;100.00;100280.09;5548715;32;34982;-69
2023/05/30 02:09:45;;;;;;;11.95;8.23;;;;;;;15.52;100.00;100290.38;5548516;32;34309;-69
2023/05/30 02:12:52;;;;;;;15.10;7.90;;;;;;;15.51;100.00;100282.56;5548972;32;34749;-69
2023/05/30 02:16:01;;;;;;;10.88;7.82;;;;;;;15.50;100.00;100281.69;5548656;32;34199;-69
2023/05/30 02:19:08;;;;;;;11.85;7.20;;;;;;;15.49;100.00;100281.91;5548430;32;34859;-69
2023/05/30 02:22:17;;;;;;;14.45;7.43;;;;;;;15.47;100.00;100281.28;5548807;32;34209;-69
2023/05/30 02:25:23;;;;;;;12.63;7.30;;;;;;;15.44;100.00;100281.69;5548516;32;34204;-69
2023/05/30 02:28:31;;;;;;;13.00;7.12;;;;;;;15.46;100.00;100284.97;5548348;32;34839;-69
2023/05/30 02:31:37;;;;;;;17.55;8.02;;;;;;;15.43;100.00;100286.22;5548439;32;34702;-69
2023/05/30 02:34:46;;;;;;;11.52;7.80;;;;;;;15.43;100.00;100286.22;5548167;32;33832;-69
2023/05/30 02:37:54;;;;;;;12.50;7.70;;;;;;;15.40;100.00;100281.25;5548203;32;34000;-69
2023/05/30 02:41:03;;;;;;;11.00;7.75;;;;;;;15.42;100.00;100281.88;5548331;32;34108;-69
2023/05/30 02:44:09;;;;;;;13.13;7.22;;;;;;;15.47;100.00;100276.75;5548256;32;34133;-69
2023/05/30 02:47:17;;;;;;;10.65;7.12;;;;;;;15.32;100.00;100280.63;5548084;32;34714;-69
2023/05/30 02:50:23;;;;;;;11.80;7.03;;;;;;;15.21;100.00;100279.34;5548252;32;33896;-69
2023/05/30 02:53:31;;;;;;;19.30;7.75;;;;;;;15.21;100.00;100277.50;5548093;32;34802;-70
2023/05/30 02:56:39;;;;;;;11.57;7.50;;;;;;;15.10;100.00;100280.72;5547132;32;34224;-70
2023/05/30 02:59:49;;;;;;;13.13;8.02;;;;;;;15.01;100.00;100276.59;5548263;32;34058;-69
2023/05/30 03:02:55;;;;;;;13.50;7.62;;;;;;;14.96;100.00;100281.69;5548134;32;34095;-69
2023/05/30 03:06:05;;;;;;;12.40;7.50;;;;;;;14.88;100.00;100284.53;5548205;32;34091;-69
2023/05/30 03:09:11;;;;;;;11.32;7.00;;;;;;;14.88;100.00;100287.22;5547369;32;33885;-69
2023/05/30 03:12:19;;;;;;;12.20;8.05;;;;;;;14.99;100.00;100285.84;5548127;32;34679;-69
2023/05/30 03:15:26;;;;;;;12.43;7.68;;;;;;;14.94;100.00;100296.28;5548033;32;34239;-69
2023/05/30 03:18:35;;;;;;;12.57;8.10;;;;;;;14.90;100.00;100301.22;5547955;32;34203;-69
2023/05/30 03:21:42;;;;;;;10.73;7.70;;;;;;;14.88;100.00;100299.75;5547249;32;34041;-68
2023/05/30 03:24:50;;;;;;;9.82;7.32;;;;;;;14.92;100.00;100296.47;5548102;32;34020;-69
2023/05/30 03:27:58;;;;;;;13.27;7.87;;;;;;;14.91;100.00;100300.16;5548236;32;34563;-69
2023/05/30 03:31:06;;;;;;;11.48;7.70;;;;;;;14.96;100.00;100305.75;5547980;32;35198;-69
2023/05/30 03:34:13;;;;;;;12.63;7.28;;;;;;;14.96;100.00;100305.75;5548009;32;34565;-69
2023/05/30 03:37:20;;;;;;;16.55;8.23;;;;;;;14.95;100.00;100304.13;5548039;32;34227;-69
2023/05/30 03:40:27;;;;;;;14.23;7.85;;;;;;;14.97;100.00;100311.91;5547719;32;35030;-68
2023/05/30 03:43:36;;;;;;;13.13;7.82;;;;;;;15.08;100.00;100320.19;5547721;32;34114;-68
2023/05/30 03:46:41;;;;;;;10.95;7.62;;;;;;;15.17;100.00;100315.50;5546879;32;33830;-68
2023/05/30 03:49:48;;;;;;;13.40;7.75;;;;;;;15.14;100.00;100313.25;5547697;32;34168;-68
2023/05/30 03:52:56;;;;;;;17.92;7.93;;;;;;;15.13;100.00;100317.75;5547664;32;34194;-68
2023/05/30 03:56:06;;;;;;;16.60;7.97;;;;;;;15.23;100.00;100323.56;5547464;32;34031;-68
2023/05/30 03:59:17;;;;;;;16.10;7.70;;;;;;;15.33;100.00;100330.38;5547459;32;35074;-69
2023/05/30 04:02:26;;;;;;;15.15;8.35;;;;;;;15.34;100.00;100327.53;5547669;32;34138;-69
2023/05/30 04:05:34;;;;;;;18.95;7.93;;;;;;;15.48;100.00;100323.03;5547385;32;34206;-68
2023/05/30 04:08:42;;;;;;;11.12;7.30;;;;;;;15.53;100.00;100325.97;5547369;32;34103;-69
2023/05/30 04:11:48;;;;;;;14.40;7.60;;;;;;;15.59;100.00;100335.84;5547038;32;34626;-69
2023/05/30 04:14:54;;;;;;;14.02;7.47;;;;;;;15.70;100.00;100342.47;5547254;32;34602;-68
2023/05/30 04:18:01;;;;;;;12.18;7.70;;;;;;;15.85;100.00;100332.41;5547371;32;34590;-68
2023/05/30 04:21:11;;;;;;;10.63;7.28;;;;;;;16.15;100.00;100344.41;5547294;32;35142;-68
2023/05/30 04:24:20;;;;;;;13.93;6.72;;;;;;;16.28;100.00;100344.41;5547291;32;34727;-69
2023/05/30 04:27:26;;;;;;;12.70;6.60;;;;;;;16.11;100.00;100336.97;5547219;32;33984;-69
2023/05/30 04:30:30;;;;;;;18.30;7.32;;;;;;;16.33;100.00;100346.47;5546935;32;34568;-68
2023/05/30 04:33:35;;;;;;;10.35;7.22;;;;;;;16.15;100.00;100341.72;5547083;32;34214;-68
2023/05/30 04:36:42;;;;;;;10.20;7.30;;;;;;;16.27;100.00;100341.91;5547063;32;34594;-69
2023/05/30 04:39:47;;;;;;;13.35;7.50;;;;;;;16.51;100.00;100355.50;5546095;32;34222;-68
2023/05/30 04:42:53;;;;;;;14.25;6.93;;;;;;;16.69;100.00;100354.94;5546688;32;34655;-69
2023/05/30 04:46:00;;;;;;;13.65;8.05;;;;;;;16.66;100.00;100349.97;5546620;32;34932;-69
2023/05/30 04:49:15;;;;;;;13.38;7.60;;;;;;;16.59;100.00;100356.38;5546870;32;34160;-69
2023/05/30 04:52:23;;;;;;;12.65;7.43;;;;;;;16.73;100.00;100353.47;5542588;32;34015;-69
2023/05/30 04:55:31;;;;;;;9.93;6.82;;;;;;;16.89;100.00;100361.06;5545852;32;34080;-69
2023/05/30 04:58:36;;;;;;;13.75;7.30;;;;;;;16.98;100.00;100353.66;5549109;32;34143;-69
2023/05/30 05:01:41;;;;;;;15.40;6.80;;;;;;;17.16;100.00;100358.31;5549058;32;34025;-69
2023/05/30 05:04:47;;;;;;;11.45;7.20;;;;;;;17.15;100.00;100359.34;5548867;32;34742;-68
2023/05/30 05:07:53;;;;;;;13.45;7.12;;;;;;;17.42;100.00;100357.41;5549044;32;33801;-69
2023/05/30 05:10:58;;;;;;;11.50;7.00;;;;;;;17.53;100.00;100362.09;5549345;32;34190;-69
2023/05/30 05:14:04;;;;;;;14.18;7.07;;;;;;;17.44;100.00;100364.19;5548121;32;33904;-69
2023/05/30 05:17:09;;;;;;;14.40;6.50;;;;;;;17.78;100.00;100368.41;5549153;32;34122;-70
2023/05/30 05:20:15;;;;;;;16.40;6.68;;;;;;;18.10;100.00;100367.41;5548837;32;34685;-69
2023/05/30 05:23:22;;;;;;;10.32;6.25;;;;;;;17.99;100.00;100368.09;5548135;32;33900;-69
2023/05/30 05:26:27;;;;;;;12.40;6.82;;;;;;;17.96;100.00;100373.06;5543237;32;34015;-70
2023/05/30 05:29:33;;;;;;;12.27;6.82;;;;;;;17.99;100.00;100376.13;5548470;32;35512;-70
2023/05/30 05:32:39;;;;;;;15.50;6.35;;;;;;;17.92;100.00;100375.34;5548546;32;34445;-70
2023/05/30 05:35:49;;;;;;;15.20;7.07;;;;;;;18.10;100.00;100382.69;5531849;32;34229;-69
2023/05/30 05:38:55;;;;;;;9.00;6.25;;;;;;;18.29;100.00;100375.53;5532372;32;34690;-69
2023/05/30 05:42:02;;;;;;;9.30;6.40;;;;;;;19.07;100.00;100374.03;5542064;32;34498;-70
2023/05/30 05:45:08;;;;;;;11.98;6.47;;;;;;;19.33;100.00;100380.97;5535482;32;34289;-68
2023/05/30 05:48:11;;;;;;;12.20;6.30;;;;;;;19.69;100.00;100372.91;5534472;32;34691;-69
2023/05/30 05:51:15;;;;;;;14.93;6.72;;;;;;;19.98;100.00;100383.88;5546268;32;34851;-70
2023/05/30 05:54:19;;;;;;;12.90;6.07;;;;;;;19.37;100.00;100385.66;5543421;32;34521;-70
2023/05/30 05:57:23;;;;;;;8.98;6.50;;;;;;;19.86;100.00;100384.66;5547199;32;35117;-67
2023/05/30 06:00:27;;;;;;;13.77;6.97;;;;;;;20.57;98.09;100391.91;5545943;32;34205;-68
2023/05/30 06:03:31;;;;;;;13.88;7.45;;;;;;;20.59;93.84;100389.78;5553247;32;33815;-67
2023/05/30 06:06:34;;;;;;;13.23;7.10;;;;;;;20.64;92.88;100394.47;5545381;32;34743;-67
2023/05/30 06:09:39;;;;;;;11.10;6.72;;;;;;;20.35;93.47;100393.50;5538113;32;35087;-68
2023/05/30 06:12:45;;;;;;;9.85;6.28;;;;;;;20.56;90.64;100392.97;5537510;32;33955;-68
2023/05/30 06:15:49;;;;;;;11.95;6.20;;;;;;;20.61;90.15;100394.97;5528895;32;35512;-67
2023/05/30 06:18:53;;;;;;;17.30;6.30;;;;;;;21.34;77.67;100395.31;5537523;32;33902;-68
2023/05/30 06:21:58;;;;;;;16.55;6.55;;;;;;;21.31;77.45;100409.25;5536701;32;33926;-68
2023/05/30 06:25:02;;;;;;;18.00;6.55;;;;;;;21.55;81.06;100412.72;5537171;32;33974;-67
2023/05/30 06:28:07;;;;;;;20.30;6.90;;;;;;;21.93;77.91;100415.69;5531437;32;34191;-68
2023/05/30 06:31:10;;;;;;;15.30;7.22;;;;;;;21.78;79.29;100403.75;5542261;32;34537;-67
2023/05/30 06:34:16;;;;;;;17.00;6.80;;;;;;;21.65;80.13;100407.53;5538177;32;33695;-68
2023/05/30 06:37:20;;;;;;;11.32;6.68;;;;;;;21.60;75.40;100405.56;5531290;32;33961;-68
2023/05/30 06:40:25;;;;;;;13.98;6.57;;;;;;;21.73;75.45;100406.37;5534561;32;34106;-68
2023/05/30 06:43:31;;;;;;;14.85;5.82;;;;;;;21.96;79.97;100407.13;5528701;32;34848;-68
2023/05/30 06:46:37;;;;;;;13.30;6.53;;;;;;;21.73;75.96;100411.75;5533030;32;33722;-67
2023/05/30 06:49:42;;;;;;;12.82;6.18;;;;;;;21.88;71.63;100412.06;5547849;32;34831;-67
2023/05/30 06:52:46;;;;;;;14.07;6.78;;;;;;;21.97;72.17;100422.28;5547510;32;34748;-68
2023/05/30 06:55:50;;;;;;;15.43;7.43;;;;;;;21.91;75.36;100420.50;5547403;32;34120;-68
2023/05/30 06:58:55;;;;;;;16.10;6.75;;;;;;;21.80;74.14;100421.34;5547570;32;34382;-68
2023/05/30 07:01:59;;;;;;;10.40;5.68;;;;;;;21.82;71.75;100421.13;5538725;32;32612;-68
2023/05/30 07:05:03;;;;;;;11.52;5.65;;;;;;;21.53;70.52;100422.97;5538966;32;34092;-67
2023/05/30 07:08:07;;;;;;;10.38;5.68;;;;;;;22.13;71.42;100417.13;5532966;32;34526;-67
2023/05/30 07:11:12;;;;;;;14.00;5.53;;;;;;;22.50;70.22;100416.47;5531060;32;34741;-67
2023/05/30 07:14:18;;;;;;;13.50;5.70;;;;;;;23.08;65.87;100417.13;5528053;32;32718;-67
2023/05/30 07:17:22;;;;;;;8.07;5.47;;;;;;;22.99;64.64;100414.03;5528124;32;34099;-67
2023/05/30 07:20:26;;;;;;;10.48;5.03;;;;;;;22.33;68.84;100415.63;5527186;32;35298;-67
2023/05/30 07:23:31;;;;;;;11.50;5.78;;;;;;;22.44;65.99;100424.72;5528274;32;34788;-68
2023/05/30 07:26:35;;;;;;;10.43;5.28;;;;;;;22.58;64.36;100414.41;5514443;32;34853;-67
2023/05/30 07:29:40;;;;;;;11.05;5.00;;;;;;;23.05;63.75;100421.13;5528080;32;33837;-67
2023/05/30 07:32:45;;;;;;;9.75;5.62;;;;;;;23.98;61.40;100420.19;5528790;32;34227;-68
2023/05/30 07:35:50;;;;;;;10.02;5.35;;;;;;;24.66;58.41;100424.09;5528364;32;34080;-68
2023/05/30 07:38:53;;;;;;;13.18;5.45;;;;;;;25.30;53.89;100427.56;5534177;32;33810;-68
2023/05/30 07:41:57;;;;;;;10.55;5.03;;;;;;;25.12;53.78;100423.37;5528105;32;34095;-68
2023/05/30 07:45:02;;;;;;;9.48;5.50;;;;;;;25.42;53.02;100425.44;5531232;32;34949;-68
2023/05/30 07:51:00;;;;;;;13.27;5.40;;;;;;;27.50;48.53;100415.59;5593059;31;377105;-67
2023/05/30 07:54:06;;;;;;;16.48;4.78;;;;;;;27.50;48.53;100415.59;5593628;31;34145;-69
2023/05/30 07:57:12;;;;;;;9.55;4.82;;;;;;;27.70;45.47;100419.34;5581423;31;36231;-68
2023/05/30 08:00:17;;;;;;;14.38;4.78;;;;;;;27.80;44.12;100435.66;5580601;31;34807;-68
2023/05/30 08:03:22;;;;;;;9.55;4.50;;;;;;;28.39;44.38;100422.78;5581551;31;33970;-68
2023/05/30 08:06:26;;;;;;;9.73;4.65;;;;;;;28.17;42.18;100421.56;5581402;31;33639;-69
2023/05/30 08:09:30;;;;;;;12.13;4.78;;;;;;;26.45;45.33;100422.81;5583848;31;33594;-68
2023/05/30 08:12:34;;;;;;;12.52;4.62;;;;;;;27.44;44.25;100426.78;5598185;31;33731;-68
2023/05/30 08:15:39;;;;;;;10.50;4.55;;;;;;;28.91;41.02;100432.19;5600284;31;33943;-69
2023/05/30 08:18:42;;;;;;;13.35;5.03;;;;;;;28.35;41.02;100434.53;5595308;31;33689;-68
2023/05/30 08:21:47;;;;;;;12.88;4.43;;;;;;;28.18;42.38;100432.19;5581318;32;34218;-67
2023/05/30 08:24:59;;;;;;;10.65;4.68;;;;;;;28.51;39.49;100433.34;5582143;31;34371;-68
2023/05/30 08:28:03;;;;;;;11.60;4.35;;;;;;;29.20;40.31;100426.69;5598492;31;35489;-69
2023/05/30 08:31:06;;;;;;;8.98;4.37;;;;;;;27.86;42.44;100429.91;5591503;31;33663;-68
2023/05/30 08:34:09;;;;;;;7.53;4.15;;;;;;;29.24;40.67;100416.84;5592414;31;34699;-68
2023/05/30 08:37:12;;;;;;;12.52;4.60;;;;;;;28.33;39.89;100423.09;5583935;31;33788;-68
2023/05/30 08:40:17;;;;;;;9.30;4.65;;;;;;;28.76;41.92;100418.66;5580633;31;34726;-68
2023/05/30 08:43:21;;;;;;;10.05;4.72;;;;;;;28.74;41.08;100418.97;5580466;31;33389;-68
2023/05/30 08:46:25;;;;;;;8.13;4.15;;;;;;;29.76;38.84;100421.41;5585914;31;33755;-68
2023/05/30 08:49:33;;;;;;;9.95;5.30;;;;;;;31.28;37.96;100432.69;5586307;31;35219;-68
2023/05/30 08:52:40;;;;;;;13.37;4.67;;;;;;;30.44;38.04;100429.22;5588221;31;33704;-68
2023/05/30 08:55:52;;;;;;;10.85;5.25;;;;;;;29.37;40.30;100435.28;5587782;31;33858;-68
2023/05/30 08:59:00;;;;;;;11.98;4.50;;;;;;;29.51;39.94;100433.50;5588645;31;34675;-70
2023/05/30 09:02:06;;;;;;;14.48;4.57;;;;;;;30.17;38.20;100441.66;5576092;31;33935;-68
2023/05/30 09:05:12;;;;;;;53.58;5.80;;;;;;;30.12;39.22;100433.50;5579502;31;33190;-68
2023/05/30 09:08:17;;;;;;;13.18;4.47;;;;;;;30.28;38.54;100457.91;5586649;31;33951;-68
2023/05/30 09:11:22;;;;;;;10.82;4.47;;;;;;;30.61;36.75;100457.69;5577875;31;34359;-68
2023/05/30 09:14:33;;;;;;;11.57;4.20;;;;;;;30.27;36.43;100450.81;5574463;31;33523;-69
2023/05/30 09:17:38;;;;;;;18.73;4.93;;;;;;;31.31;35.80;100454.84;5576689;31;34459;-69
2023/05/30 09:20:43;;;;;;;20.10;5.07;;;;;;;32.20;34.95;100457.94;5583234;31;33978;-68
2023/05/30 09:23:49;;;;;;;22.35;5.35;;;;;;;30.90;36.95;100462.16;5580140;31;34489;-68
2023/05/30 09:26:57;;;;;;;12.27;5.03;;;;;;;28.88;40.83;100455.44;5578589;31;33621;-68
2023/05/30 09:30:09;;;;;;;10.98;4.85;;;;;;;28.39;41.88;100454.69;5579916;31;33665;-67
2023/05/30 09:33:14;;;;;;;13.52;6.00;;;;;;;27.02;45.66;100455.19;5581273;31;33520;-68
2023/05/30 09:36:21;;;;;;;16.95;5.32;;;;;;;27.14;46.66;100465.81;5586139;31;33788;-69
2023/05/30 09:39:26;;;;;;;12.15;5.05;;;;;;;27.49;44.69;100460.31;5586077;31;34653;-68
2023/05/30 09:42:43;;;;;;;12.15;4.62;;;;;;;26.67;47.32;100455.22;5586172;31;33429;-67
2023/05/30 09:45:48;;;;;;;8.05;4.35;;;;;;;26.48;48.39;100465.00;5592464;31;34756;-69
2023/05/30 09:48:55;;;;;;;11.90;5.22;;;;;;;25.49;49.26;100469.50;5591186;31;34262;-66
2023/05/30 09:52:01;;;;;;;11.12;4.80;;;;;;;26.21;47.77;100468.75;5592431;31;33508;-67
2023/05/30 09:55:09;;;;;;;11.23;5.03;;;;;;;26.38;47.60;100466.59;5587720;31;34039;-67
2023/05/30 09:58:20;;;;;;;12.88;5.68;;;;;;;25.87;51.18;100464.78;5587145;31;33359;-67
2023/05/30 10:01:24;;;;;;;11.25;5.45;;;;;;;26.02;50.74;100462.12;5585621;31;34642;-68
2023/05/30 10:04:31;;;;;;;12.80;6.15;;;;;;;26.70;50.56;100469.06;5583237;31;33549;-67
2023/05/30 10:07:37;;;;;;;7.72;5.15;;;;;;;27.61;49.18;100465.44;5567007;32;32349;-68
2023/05/30 10:10:41;;;;;;;17.02;5.82;;;;;;;29.69;45.70;100470.16;5566984;32;33978;-67
2023/05/30 10:13:44;;;;;;;13.15;5.93;;;;;;;30.75;43.67;100471.44;5566320;32;33479;-68
2023/05/30 10:16:53;;;;;;;10.95;5.97;;;;;;;29.72;44.25;100475.06;5575742;31;34530;-67
2023/05/30 10:20:02;;;;;;;14.80;5.82;;;;;;;28.66;47.18;100470.63;5582087;31;33417;-69
2023/05/30 10:23:07;;;;;;;10.75;5.35;;;;;;;29.21;44.60;100458.38;5580883;31;34381;-68
2023/05/30 10:26:12;;;;;;;12.65;5.60;;;;;;;28.71;45.53;100463.22;5586483;31;34546;-68
2023/05/30 10:29:21;;;;;;;6.70;5.05;;;;;;;29.43;44.82;100463.38;5583754;31;33776;-69
2023/05/30 10:32:26;;;;;;;12.15;5.60;;;;;;;29.94;42.77;100458.13;5570269;31;33879;-68
2023/05/30 10:35:32;;;;;;;8.13;4.68;;;;;;;29.91;40.85;100458.72;5566823;32;33665;-70
2023/05/30 10:38:59;;;;;;;10.10;4.82;;;;;;;31.44;40.16;100454.03;5566682;32;33689;-68
2023/05/30 10:42:16;;;;;;;12.00;4.43;;;;;;;31.71;38.09;100464.19;5566662;32;33723;-70
2023/05/30 10:46:06;;;;;;;5.50;4.35;;;;;;;32.71;35.53;100465.03;5565628;32;33633;-69
2023/05/30 10:49:31;;;;;;;10.32;4.40;;;;;;;32.72;36.20;100447.41;5527772;31;33433;-70
2023/05/30 10:52:34;;;;;;;8.15;4.20;;;;;;;34.07;34.90;100454.13;5566851;32;34399;-69
2023/05/30 10:55:37;;;;;;;9.05;4.30;;;;;;;30.99;37.40;100446.63;5567094;32;33539;-70
2023/05/30 10:58:46;;;;;;;8.00;3.80;;;;;;;31.66;36.92;100445.09;5566960;31;33666;-70
2023/05/30 11:02:06;;;;;;;5.43;3.42;;;;;;;32.10;36.09;100444.44;5573857;31;33376;-69
2023/05/30 11:05:10;;;;;;;6.87;4.22;;;;;;;34.15;32.70;100442.28;5578731;31;33482;-67
2023/05/30 11:08:14;;;;;;;4.95;3.72;;;;;;;33.86;32.23;100435.47;5573032;31;33019;-67
2023/05/30 11:11:21;;;;;;;6.60;4.10;;;;;;;33.83;33.46;100432.56;5569677;31;33640;-68
2023/05/30 11:14:26;;;;;;;7.65;4.10;;;;;;;32.16;34.82;100440.47;5576797;31;35115;-68
2023/05/30 11:17:38;;;;;;;5.25;3.55;;;;;;;31.06;36.59;100430.66;5568988;31;33767;-70
2023/05/30 11:20:50;;;;;;;6.95;3.90;;;;;;;32.39;35.54;100446.00;5566259;32;33664;-69
2023/05/30 11:24:00;;;;;;;9.13;3.80;;;;;;;32.87;34.17;100441.53;5575443;31;33981;-68
2023/05/30 11:27:07;;;;;;;8.60;4.12;;;;;;;31.83;35.24;100437.06;5585945;31;33676;-70
2023/05/30 11:30:21;;;;;;;10.88;4.20;;;;;;;31.95;35.02;100438.50;5585664;31;33431;-72
2023/05/30 11:33:26;;;;;;;6.07;4.07;;;;;;;33.04;33.28;100436.13;5584551;31;33367;-67
2023/05/30 11:36:29;;;;;;;10.18;4.15;;;;;;;34.47;31.84;100434.38;5585961;31;33655;-69
2023/05/30 11:39:33;;;;;;;7.95;4.00;;;;;;;33.85;31.68;100433.84;5585250;31;33919;-69
2023/05/30 11:42:36;;;;;;;7.15;4.10;;;;;;;35.62;30.42;100440.87;5585288;31;34492;-69
2023/05/30 11:45:40;;;;;;;7.45;3.58;;;;;;;35.68;29.01;100442.34;5583091;31;33623;-69
2023/05/30 11:48:43;;;;;;;7.62;4.22;;;;;;;36.20;28.34;100434.53;5585305;31;34418;-70
2023/05/30 11:51:47;;;;;;;6.85;3.83;;;;;;;35.34;29.58;100429.50;5576337;31;33671;-69
2023/05/30 11:54:50;;;;;;;7.95;3.87;;;;;;;33.00;32.95;100421.38;5565820;32;34367;-69
2023/05/30 11:57:54;;;;;;;5.45;3.80;;;;;;;32.07;34.41;100423.09;5565824;32;33793;-69
2023/05/30 12:00:58;;;;;;;8.30;4.28;;;;;;;31.79;35.00;100416.06;5564859;32;33645;-67
2023/05/30 12:04:04;;;;;;;9.50;4.37;;;;;;;33.05;32.27;100413.00;5565514;32;34305;-68
2023/05/30 12:07:08;;;;;;;8.57;4.25;;;;;;;33.44;32.04;100414.16;5565620;32;33585;-68
2023/05/30 12:10:12;;;;;;;7.00;4.32;;;;;;;31.80;35.32;100410.28;5565905;32;33726;-69
2023/05/30 12:13:17;;;;;;;8.85;4.20;;;;;;;30.33;37.35;100400.38;5582252;31;34203;-68
2023/05/30 12:16:21;;;;;;;9.30;4.05;;;;;;;30.68;36.54;100396.25;5584371;31;33496;-69
2023/05/30 12:19:30;;;;;;;8.18;4.07;;;;;;;30.86;37.09;100396.19;5584577;31;33811;-69
2023/05/30 12:22:34;;;;;;;7.30;4.20;;;;;;;31.47;35.85;100398.56;5575364;31;33714;-69
2023/05/30 12:25:37;;;;;;;6.10;4.07;;;;;;;34.42;31.00;100389.69;5582350;31;33897;-70
2023/05/30 12:28:45;;;;;;;14.30;4.35;;;;;;;35.10;30.97;100394.19;5585308;31;33637;-69
2023/05/30 12:31:48;;;;;;;9.93;4.50;;;;;;;37.21;28.35;100391.53;5583418;31;33373;-68
2023/05/30 12:34:57;;;;;;;8.85;4.10;;;;;;;36.67;28.11;100388.09;5568517;31;33408;-70
2023/05/30 12:38:00;;;;;;;;;;;;;;;35.03;29.50;100374.59;5568624;32;33534;-69
2023/05/30 12:41:07;;;;;;;7.22;4.07;;;;;;;35.97;28.04;100378.75;5570612;31;34116;-70
2023/05/30 12:44:19;;;;;;;8.60;4.40;;;;;;;33.05;31.53;100362.72;5578737;31;33607;-70
2023/05/30 12:47:24;;;;;;;11.82;4.15;;;;;;;35.93;28.12;100371.50;5567261;31;33523;-69
2023/05/30 12:50:28;;;;;;;5.95;4.10;;;;;;;36.62;26.87;100376.44;5569418;31;33382;-69
2023/05/30 12:53:32;;;;;;;10.60;3.72;;;;;;;36.93;26.43;100377.53;5581170;31;34005;-70
2023/05/30 12:56:35;;;;;;;7.80;4.15;;;;;;;35.54;28.79;100381.00;5587034;31;34870;-70
2023/05/30 12:59:40;;;;;;;6.55;3.97;;;;;;;38.40;24.52;100386.44;5583231;31;33936;-69
2023/05/30 13:02:43;;;;;;;9.52;4.40;;;;;;;35.36;28.18;100377.56;5572556;31;34495;-69
2023/05/30 13:05:47;;;;;;;14.73;4.30;;;;;;;34.58;29.25;100378.94;5574683;31;32409;-69
2023/05/30 13:08:51;;;;;;;14.07;4.30;;;;;;;37.36;25.58;100376.19;5577505;31;33564;-69
2023/05/30 13:11:56;;;;;;;10.88;4.05;;;;;;;39.32;23.58;100378.59;5572767;31;33815;-69
2023/05/30 13:15:00;;;;;;;6.15;3.90;;;;;;;39.29;23.75;100378.50;5585681;31;34251;-70
2023/05/30 13:18:05;;;;;;;11.80;4.10;;;;;;;37.66;25.48;100380.34;5587211;31;33533;-69
2023/05/30 13:21:09;;;;;;;9.18;3.87;;;;;;;36.71;25.86;100371.63;5577654;31;33689;-69
2023/05/30 13:24:14;;;;;;;9.30;4.00;;;;;;;36.04;27.14;100372.72;5570394;31;33994;-69
2023/05/30 13:27:17;;;;;;;10.38;4.22;;;;;;;38.57;24.01;100381.44;5579711;31;32488;-69
2023/05/30 13:30:21;;;;;;;9.70;4.05;;;;;;;38.25;23.55;100380.50;5575325;31;32509;-70
2023/05/30 13:33:24;;;;;;;7.87;3.92;;;;;;;38.27;23.37;100378.19;5578873;31;34529;-69
2023/05/30 13:36:29;;;;;;;13.38;4.10;;;;;;;39.26;22.80;100388.38;5577601;31;34188;-68
2023/05/30 13:39:33;;;;;;;6.85;3.90;;;;;;;38.13;24.30;100377.78;5584172;31;33731;-68
2023/05/30 13:42:38;;;;;;;6.47;4.03;;;;;;;36.60;25.94;100373.97;5579668;31;33850;-70
2023/05/30 13:45:43;;;;;;;9.52;4.40;;;;;;;35.95;26.32;100367.28;5571906;31;33581;-68
2023/05/30 13:48:48;;;;;;;10.13;4.45;;;;;;;37.24;25.21;100367.88;5581120;31;33796;-69
2023/05/30 13:51:51;;;;;;;13.00;4.30;;;;;;;37.93;24.73;100358.56;5585686;31;34327;-72
2023/05/30 13:54:57;;;;;;;10.88;4.05;;;;;;;38.94;23.21;100361.78;5580001;31;33723;-68
2023/05/30 13:58:02;;;;;;;8.30;4.15;;;;;;;38.69;25.16;100355.56;5567694;31;34297;-68
2023/05/30 14:01:07;;;;;;;10.15;4.20;;;;;;;38.52;24.46;100353.16;5570653;31;33869;-67
2023/05/30 14:04:12;;;;;;;7.97;3.87;;;;;;;39.20;23.59;100355.69;5582976;31;34237;-69
2023/05/30 14:07:16;;;;;;;9.68;4.35;;;;;;;38.67;24.16;100355.94;5586025;31;33809;-69
2023/05/30 14:10:23;;;;;;;6.57;4.28;;;;;;;37.78;24.37;100338.75;5584065;31;33684;-68
2023/05/30 14:13:29;;;;;;;9.60;4.55;;;;;;;36.88;24.82;100336.28;5580696;31;34093;-69
2023/05/30 14:16:33;;;;;;;9.40;3.83;;;;;;;36.75;25.60;100340.16;5578489;31;33227;-68
2023/05/30 14:19:38;;;;;;;12.43;4.30;;;;;;;33.93;27.88;100344.97;5567039;31;33926;-68
2023/05/30 14:22:44;;;;;;;10.40;4.35;;;;;;;31.75;31.33;100351.94;5582178;31;34605;-68